Time;durP1;ratioP1;P1;durP2;ratioP2;P2;SDS_P1;SDS_P2;PMS_P1;PMS_P2;Temp;Humidity;BMP_temperature;BMP_pressure;BME280_temperature;BME280_humidity;BME280_pressure;Samples;Min_cycle;Max_cycle;Signal;HPM_P1;HPM_P2
2021/05/12 00:13:11;;;;;;;5.43;3.90;;;18.30;99.90;;;;;;6142027;23;20412;-85
2021/05/12 00:23:17;;;;;;;4.63;3.93;;;18.00;99.90;;;;;;5963340;24;20416;-85
2021/05/12 00:32:32;;;;;;;7.37;5.13;;;18.00;99.90;;;;;;6024107;23;20391;-84
2021/05/12 00:35:13;;;;;;;8.17;6.20;;;18.00;99.90;;;;;;6031961;23;20478;-85
2021/05/12 00:38:30;;;;;;;7.80;5.03;;;18.10;99.90;;;;;;6188378;23;20365;-85
2021/05/12 00:41:00;;;;;;;8.50;5.80;;;18.30;99.90;;;;;;6199094;23;20490;-85
2021/05/12 00:47:48;;;;;;;11.17;5.43;;;18.00;99.90;;;;;;6197134;23;20360;-84
2021/05/12 00:50:52;;;;;;;11.90;7.27;;;18.00;99.90;;;;;;6099212;23;20377;-86
2021/05/12 00:53:25;;;;;;;9.23;7.13;;;17.90;99.90;;;;;;6168855;23;20401;-84
2021/05/12 00:57:03;;;;;;;9.70;6.80;;;17.60;99.90;;;;;;6195410;23;20896;-84
2021/05/12 01:03:32;;;;;;;8.70;6.17;;;17.50;99.90;;;;;;6193831;23;20905;-83
2021/05/12 01:06:02;;;;;;;7.50;5.53;;;17.40;99.90;;;;;;6216162;23;20413;-83
2021/05/12 01:08:28;;;;;;;7.30;6.07;;;17.20;99.90;;;;;;6188814;23;20412;-85
2021/05/12 01:10:55;;;;;;;7.10;5.60;;;17.00;99.90;;;;;;6189387;23;20408;-84
2021/05/12 01:13:24;;;;;;;6.80;5.23;;;17.00;99.90;;;;;;6192795;23;20377;-85
2021/05/12 01:15:51;;;;;;;6.13;4.77;;;16.90;99.90;;;;;;6192942;23;20383;-85
2021/05/12 01:18:22;;;;;;;6.67;4.60;;;16.90;99.90;;;;;;6190156;23;20404;-84
2021/05/12 01:20:53;;;;;;;9.30;5.30;;;17.10;99.90;;;;;;6190967;23;20443;-84
2021/05/12 01:23:20;;;;;;;6.50;5.10;;;17.10;99.90;;;;;;6214803;23;20385;-84
2021/05/12 01:25:51;;;;;;;8.33;5.60;;;16.90;99.90;;;;;;6190747;23;20396;-84
2021/05/12 01:28:18;;;;;;;9.53;6.47;;;16.80;99.90;;;;;;6190685;23;20408;-83
2021/05/12 01:30:58;;;;;;;7.93;4.50;;;16.80;99.90;;;;;;6215835;23;20413;-83
2021/05/12 01:33:25;;;;;;;8.33;4.90;;;17.00;99.90;;;;;;6190684;23;20364;-83
2021/05/12 01:35:51;;;;;;;6.90;5.27;;;16.90;99.90;;;;;;6191586;23;20393;-83
2021/05/12 01:38:17;;;;;;;6.20;5.37;;;16.70;99.90;;;;;;6195683;23;20377;-84
2021/05/12 01:40:43;;;;;;;6.43;4.97;;;16.90;99.90;;;;;;6192657;23;20226;-85
2021/05/12 01:43:08;;;;;;;6.43;5.37;;;17.00;99.90;;;;;;6193043;23;20384;-85
2021/05/12 01:45:34;;;;;;;14.00;8.73;;;17.20;99.90;;;;;;6195851;23;20407;-83
2021/05/12 01:48:03;;;;;;;9.57;6.43;;;17.30;99.90;;;;;;6197233;23;20531;-85
2021/05/12 01:50:28;;;;;;;7.50;5.10;;;17.20;99.90;;;;;;6221965;23;20184;-83
2021/05/12 01:52:54;;;;;;;8.50;5.67;;;17.20;99.90;;;;;;6197106;23;20377;-83
2021/05/12 01:55:19;;;;;;;6.37;5.53;;;17.20;99.90;;;;;;6197669;23;20173;-84
2021/05/12 01:57:45;;;;;;;9.03;6.37;;;17.20;99.90;;;;;;6197407;23;20141;-85
2021/05/12 02:00:48;;;;;;;15.53;8.63;;;17.20;99.90;;;;;;6223704;23;20522;-83
2021/05/12 02:03:14;;;;;;;9.03;5.00;;;17.40;99.90;;;;;;6196947;23;20236;-84
2021/05/12 02:05:43;;;;;;;6.57;5.00;;;17.40;99.90;;;;;;6198966;23;20435;-86
2021/05/12 02:08:11;;;;;;;9.60;4.80;;;17.40;99.90;;;;;;6199256;23;20385;-84
2021/05/12 02:10:38;;;;;;;6.10;3.83;;;17.50;99.90;;;;;;6199904;23;20728;-85
2021/05/12 02:13:04;;;;;;;5.90;4.90;;;17.50;99.90;;;;;;6199153;23;20918;-83
2021/05/12 02:15:30;;;;;;;7.40;4.73;;;17.40;99.90;;;;;;6198222;23;20390;-83
2021/05/12 02:17:56;;;;;;;12.20;4.90;;;17.60;99.90;;;;;;6195823;23;20734;-83
2021/05/12 02:20:25;;;;;;;7.57;4.40;;;17.50;99.90;;;;;;6201588;23;20424;-84
2021/05/12 02:22:51;;;;;;;6.63;4.83;;;17.40;99.90;;;;;;6199165;23;20373;-85
2021/05/12 02:25:17;;;;;;;6.87;4.47;;;17.10;99.90;;;;;;6199813;23;20384;-85
2021/05/12 02:27:42;;;;;;;6.13;4.83;;;17.20;99.90;;;;;;6200582;23;20369;-85
2021/05/12 02:30:10;;;;;;;6.27;4.30;;;17.10;99.90;;;;;;6199767;23;20157;-86
2021/05/12 02:32:37;;;;;;;5.27;4.20;;;16.90;99.90;;;;;;6222387;23;20153;-85
2021/05/12 02:35:03;;;;;;;6.90;4.80;;;17.00;99.90;;;;;;6196359;23;20408;-85
2021/05/12 02:37:29;;;;;;;5.93;4.63;;;17.10;99.90;;;;;;6196605;23;20384;-85
2021/05/12 02:39:58;;;;;;;6.00;4.53;;;17.20;99.90;;;;;;6222141;23;20392;-84
2021/05/12 02:42:24;;;;;;;5.17;4.10;;;17.20;99.90;;;;;;6196061;23;20177;-84
2021/05/12 02:44:50;;;;;;;6.43;4.20;;;17.30;99.90;;;;;;6193237;23;20404;-85
2021/05/12 02:47:16;;;;;;;8.93;3.93;;;17.30;99.90;;;;;;6218412;23;20385;-85
2021/05/12 02:49:47;;;;;;;4.53;3.90;;;17.40;99.90;;;;;;6195595;23;20149;-86
2021/05/12 02:52:12;;;;;;;4.97;3.80;;;17.00;99.90;;;;;;6199038;23;20173;-83
2021/05/12 02:54:38;;;;;;;5.37;3.67;;;17.00;99.90;;;;;;6197618;23;20384;-83
2021/05/12 02:57:04;;;;;;;6.47;4.27;;;16.90;99.90;;;;;;6200760;23;20212;-85
2021/05/12 02:59:30;;;;;;;6.10;3.80;;;17.00;99.90;;;;;;6201649;23;20213;-83
2021/05/12 03:01:56;;;;;;;8.10;4.47;;;17.00;99.90;;;;;;6200842;23;20431;-84
2021/05/12 03:04:21;;;;;;;5.03;3.67;;;17.00;99.90;;;;;;6197634;23;20762;-83
2021/05/12 03:06:47;;;;;;;4.97;3.90;;;17.10;99.90;;;;;;6201021;23;20384;-86
2021/05/12 03:09:13;;;;;;;5.13;4.30;;;17.10;99.90;;;;;;6200976;23;20176;-86
2021/05/12 03:11:39;;;;;;;4.47;4.07;;;17.00;99.90;;;;;;6199605;23;20215;-84
2021/05/12 03:14:06;;;;;;;8.40;4.47;;;16.80;99.90;;;;;;6199760;23;20156;-84
2021/05/12 03:16:32;;;;;;;7.10;4.10;;;17.00;99.90;;;;;;6198138;23;20380;-84
2021/05/12 03:19:00;;;;;;;4.10;3.63;;;17.00;99.90;;;;;;6196919;23;20431;-85
2021/05/12 03:21:27;;;;;;;5.97;3.80;;;17.00;99.90;;;;;;6194947;23;20449;-85
2021/05/12 03:23:52;;;;;;;4.87;3.83;;;17.00;99.90;;;;;;6199362;23;20428;-85
2021/05/12 03:26:22;;;;;;;5.03;3.60;;;17.10;99.90;;;;;;6230941;23;20377;-85
2021/05/12 03:28:47;;;;;;;5.77;4.17;;;16.90;99.90;;;;;;6197698;23;20157;-86
2021/05/12 03:31:14;;;;;;;4.80;3.70;;;17.00;99.90;;;;;;6198477;23;20400;-87
2021/05/12 03:33:41;;;;;;;6.07;4.00;;;16.80;99.90;;;;;;6197548;23;20165;-85
2021/05/12 03:36:08;;;;;;;5.77;3.77;;;16.70;99.90;;;;;;6199218;23;20397;-84
2021/05/12 03:38:35;;;;;;;6.47;3.23;;;16.80;99.90;;;;;;6199024;23;20467;-84
2021/05/12 03:41:01;;;;;;;4.60;3.77;;;16.80;99.90;;;;;;6198415;23;20482;-85
2021/05/12 03:43:26;;;;;;;6.37;3.33;;;16.80;99.90;;;;;;6196230;23;20372;-85
2021/05/12 03:45:55;;;;;;;5.23;3.13;;;16.70;99.90;;;;;;6197878;23;20385;-85
2021/05/12 03:48:20;;;;;;;4.40;4.00;;;16.70;99.90;;;;;;6219930;23;20229;-84
2021/05/12 03:50:46;;;;;;;8.80;3.30;;;16.80;99.90;;;;;;6220892;23;20412;-85
2021/05/12 03:53:12;;;;;;;3.10;2.70;;;17.00;99.90;;;;;;6221739;23;20172;-84
2021/05/12 03:55:39;;;;;;;4.00;2.80;;;17.10;99.90;;;;;;6194007;23;20157;-84
2021/05/12 03:58:05;;;;;;;4.57;3.03;;;16.80;99.90;;;;;;6193106;23;20376;-84
2021/05/12 04:00:31;;;;;;;4.63;2.37;;;16.70;99.90;;;;;;6194570;23;20419;-84
2021/05/12 04:02:57;;;;;;;3.23;2.83;;;16.80;99.90;;;;;;6196137;23;20373;-85
2021/05/12 04:05:23;;;;;;;2.57;2.20;;;16.70;99.90;;;;;;6195336;23;20447;-85
2021/05/12 04:07:49;;;;;;;4.43;2.70;;;16.60;99.90;;;;;;6194645;23;20373;-84
2021/05/12 04:10:15;;;;;;;4.80;3.37;;;16.60;99.90;;;;;;6218176;23;20757;-84
2021/05/12 04:12:44;;;;;;;3.20;2.33;;;16.70;99.90;;;;;;6192814;23;20154;-84
2021/05/12 04:15:10;;;;;;;7.23;2.90;;;16.90;99.90;;;;;;6193358;23;20380;-83
2021/05/12 04:17:36;;;;;;;4.20;3.23;;;17.00;99.90;;;;;;6219015;23;20444;-82
2021/05/12 04:20:05;;;;;;;4.57;2.67;;;17.10;99.90;;;;;;6229184;23;20831;-83
2021/05/12 04:22:31;;;;;;;4.37;2.43;;;17.00;99.90;;;;;;6198939;23;20427;-83
2021/05/12 04:24:56;;;;;;;3.13;2.43;;;17.00;99.90;;;;;;6193635;23;20397;-83
2021/05/12 04:27:22;;;;;;;5.20;2.93;;;17.00;99.90;;;;;;6226862;23;20205;-83
2021/05/12 04:29:47;;;;;;;5.43;2.60;;;16.90;99.90;;;;;;6223422;23;20153;-85
2021/05/12 04:32:13;;;;;;;4.67;2.43;;;16.90;99.90;;;;;;6206651;23;20165;-82
2021/05/12 04:34:39;;;;;;;4.97;2.50;;;17.00;99.90;;;;;;6206092;23;20150;-83
2021/05/12 04:37:04;;;;;;;4.20;2.40;;;17.10;99.90;;;;;;6203664;23;20401;-83
2021/05/12 04:39:30;;;;;;;5.10;2.70;;;17.00;99.90;;;;;;6200459;23;20665;-82
2021/05/12 04:41:56;;;;;;;3.93;2.50;;;17.00;99.90;;;;;;6193975;23;20213;-83
2021/05/12 04:44:21;;;;;;;2.53;2.30;;;17.00;99.90;;;;;;6214783;23;20200;-84
2021/05/12 04:46:49;;;;;;;10.53;3.30;;;17.10;99.90;;;;;;6189964;23;20464;-84
2021/05/12 04:49:15;;;;;;;7.13;3.40;;;17.20;99.90;;;;;;6211885;23;20149;-84
2021/05/12 04:51:40;;;;;;;4.60;2.93;;;17.10;99.90;;;;;;6188260;23;20475;-84
2021/05/12 04:54:06;;;;;;;3.63;3.20;;;16.80;99.90;;;;;;6191103;23;20173;-83
2021/05/12 04:56:35;;;;;;;7.03;2.90;;;16.60;99.90;;;;;;6206001;23;20152;-84
2021/05/12 04:59:01;;;;;;;3.93;2.67;;;16.60;99.90;;;;;;6191518;23;20399;-84
2021/05/12 05:01:27;;;;;;;3.10;2.80;;;16.60;99.90;;;;;;6191219;23;20425;-84
2021/05/12 05:03:53;;;;;;;4.03;3.43;;;16.80;99.90;;;;;;6193095;23;20424;-84
2021/05/12 05:06:18;;;;;;;4.20;2.90;;;16.60;99.90;;;;;;6191603;23;20396;-84
2021/05/12 05:08:44;;;;;;;6.20;3.90;;;16.50;99.90;;;;;;6215400;23;20156;-83
2021/05/12 05:11:10;;;;;;;4.10;3.30;;;16.60;99.90;;;;;;6192412;23;20224;-84
2021/05/12 05:13:36;;;;;;;5.97;3.30;;;16.60;99.90;;;;;;6217658;23;20488;-82
2021/05/12 05:16:02;;;;;;;4.80;3.23;;;16.60;99.90;;;;;;6190832;23;20165;-83
2021/05/12 05:18:28;;;;;;;6.40;3.47;;;16.60;99.90;;;;;;6191164;23;20861;-83
2021/05/12 05:20:55;;;;;;;3.97;3.20;;;16.70;99.90;;;;;;6189963;23;20428;-83
2021/05/12 05:23:20;;;;;;;3.37;3.03;;;16.70;99.90;;;;;;6192394;23;20389;-84
2021/05/12 05:25:52;;;;;;;3.60;3.30;;;16.60;99.90;;;;;;6215811;23;20365;-85
2021/05/12 05:28:18;;;;;;;3.80;2.97;;;16.40;99.90;;;;;;6191264;23;20213;-84
2021/05/12 05:30:44;;;;;;;5.70;3.13;;;16.40;99.90;;;;;;6188560;23;20415;-85
2021/05/12 05:33:10;;;;;;;6.20;3.23;;;16.40;99.90;;;;;;6190191;23;20377;-84
2021/05/12 05:35:35;;;;;;;7.30;3.03;;;16.50;99.90;;;;;;6188501;23;20450;-83
2021/05/12 05:38:01;;;;;;;4.53;2.83;;;16.70;99.90;;;;;;6196873;23;20175;-85
2021/05/12 05:40:27;;;;;;;4.00;2.97;;;16.90;99.90;;;;;;6216245;23;20196;-86
2021/05/12 05:43:01;;;;;;;6.03;3.77;;;16.50;99.90;;;;;;6192474;23;20610;-85
2021/05/12 05:45:26;;;;;;;4.20;3.60;;;16.40;99.90;;;;;;6191037;23;20390;-87
2021/05/12 05:47:52;;;;;;;3.50;3.20;;;16.60;99.90;;;;;;6214601;23;20407;-84
2021/05/12 05:50:17;;;;;;;5.50;3.00;;;16.60;99.90;;;;;;6213935;23;20150;-85
2021/05/12 05:52:43;;;;;;;3.97;2.83;;;16.70;99.90;;;;;;6190178;23;20192;-83
2021/05/12 05:55:10;;;;;;;3.87;3.10;;;16.80;99.90;;;;;;6192004;23;20146;-84
2021/05/12 05:57:36;;;;;;;3.97;3.23;;;16.90;99.90;;;;;;6188526;23;20389;-84
2021/05/12 06:00:03;;;;;;;5.47;2.83;;;16.90;99.90;;;;;;6189325;23;20377;-83
2021/05/12 06:02:29;;;;;;;8.10;3.77;;;16.80;99.90;;;;;;6191090;23;20174;-85
2021/05/12 06:04:54;;;;;;;11.20;3.00;;;16.80;99.90;;;;;;6190215;23;20418;-83
2021/05/12 06:07:20;;;;;;;3.93;3.40;;;16.90;99.90;;;;;;6213149;23;20178;-82
2021/05/12 06:09:46;;;;;;;3.70;3.27;;;16.90;99.90;;;;;;6189917;23;20198;-83
2021/05/12 06:12:11;;;;;;;5.40;3.70;;;16.90;99.90;;;;;;6223863;23;20256;-84
2021/05/12 06:14:37;;;;;;;4.70;3.70;;;17.00;99.90;;;;;;6200498;23;20160;-84
2021/05/12 06:17:02;;;;;;;4.57;3.53;;;16.90;99.90;;;;;;6222783;23;20168;-84
2021/05/12 06:19:28;;;;;;;5.30;3.43;;;16.90;99.90;;;;;;6218874;23;20555;-84
2021/05/12 06:21:54;;;;;;;14.00;4.20;;;16.90;99.90;;;;;;6197572;23;20508;-84
2021/05/12 06:24:22;;;;;;;13.80;3.90;;;17.10;99.90;;;;;;6222455;23;20169;-84
2021/05/12 06:26:50;;;;;;;5.17;3.70;;;17.00;99.90;;;;;;6219836;23;20149;-84
2021/05/12 06:29:17;;;;;;;5.60;4.30;;;17.00;99.90;;;;;;6218235;23;20372;-83
2021/05/12 06:31:42;;;;;;;4.73;3.70;;;16.90;99.90;;;;;;6195634;23;20497;-84
2021/05/12 06:34:09;;;;;;;8.57;4.10;;;17.20;99.90;;;;;;6197355;23;20692;-83
2021/05/12 06:36:38;;;;;;;4.10;3.40;;;17.20;99.90;;;;;;6198886;23;20169;-84
2021/05/12 06:39:04;;;;;;;6.80;3.93;;;17.40;99.90;;;;;;6194764;23;20386;-83
2021/05/12 06:41:31;;;;;;;4.73;3.80;;;17.20;99.90;;;;;;6193815;23;20460;-82
2021/05/12 06:43:57;;;;;;;4.53;3.10;;;17.10;99.90;;;;;;6228360;23;20398;-82
2021/05/12 06:46:23;;;;;;;4.33;3.60;;;17.00;99.90;;;;;;6195224;23;20376;-82
2021/05/12 06:48:49;;;;;;;5.63;4.93;;;16.90;99.90;;;;;;6193722;23;20373;-84
2021/05/12 06:51:14;;;;;;;5.53;4.30;;;16.80;99.90;;;;;;6192610;23;20192;-83
2021/05/12 06:53:40;;;;;;;4.67;4.20;;;16.80;99.90;;;;;;6193094;23;20157;-84
2021/05/12 06:56:06;;;;;;;6.37;5.17;;;16.70;99.90;;;;;;6191122;23;20152;-83
2021/05/12 06:58:34;;;;;;;9.93;5.30;;;16.60;99.90;;;;;;6188682;23;20184;-84
2021/05/12 07:04:28;;;;;;;11.13;5.10;;;16.50;99.90;;;;;;6189999;23;20376;-85
2021/05/12 07:07:43;;;;;;;6.33;4.87;;;16.50;99.90;;;;;;6191199;23;20387;-85
2021/05/12 07:13:44;;;;;;;7.27;4.60;;;16.10;99.90;;;;;;6193019;23;20777;-87
2021/05/12 07:16:10;;;;;;;5.17;4.20;;;16.30;99.90;;;;;;6191849;23;20377;-82
2021/05/12 07:18:36;;;;;;;6.57;4.77;;;16.10;99.90;;;;;;6191685;23;20368;-85
2021/05/12 07:21:01;;;;;;;8.90;5.30;;;16.20;99.90;;;;;;6189895;23;20425;-85
2021/05/12 07:23:38;;;;;;;11.00;5.57;;;16.20;99.90;;;;;;6191167;23;20491;-85
2021/05/12 07:26:03;;;;;;;9.07;5.17;;;16.40;99.90;;;;;;6191333;23;20457;-84
2021/05/12 07:28:32;;;;;;;6.10;4.57;;;16.40;99.90;;;;;;6190176;23;20441;-84
2021/05/12 07:30:58;;;;;;;6.10;4.47;;;16.60;99.90;;;;;;6192320;23;20717;-85
2021/05/12 07:33:25;;;;;;;7.57;4.90;;;16.60;99.90;;;;;;6192966;23;20447;-85
2021/05/12 07:35:51;;;;;;;8.07;5.20;;;16.70;99.90;;;;;;6192566;23;20373;-85
2021/05/12 07:38:17;;;;;;;8.27;4.60;;;16.90;99.90;;;;;;6190272;23;20373;-84
2021/05/12 07:40:46;;;;;;;9.20;5.10;;;17.00;99.90;;;;;;6195722;23;20229;-85
2021/05/12 07:43:24;;;;;;;12.80;5.33;;;17.00;99.90;;;;;;6192484;23;20158;-89
2021/05/12 07:45:50;;;;;;;10.60;5.47;;;17.20;99.90;;;;;;6182060;23;20524;-87
2021/05/12 07:48:24;;;;;;;8.27;5.20;;;17.00;99.90;;;;;;6197590;23;20811;-88
2021/05/12 07:50:53;;;;;;;8.80;5.70;;;17.00;99.90;;;;;;6202488;23;20169;-87
2021/05/12 07:53:19;;;;;;;7.93;4.90;;;16.70;99.90;;;;;;6190797;23;20404;-86
2021/05/12 07:55:45;;;;;;;9.23;6.27;;;17.10;99.90;;;;;;6193167;23;20380;-86
2021/05/12 07:58:10;;;;;;;11.53;6.60;;;17.20;99.90;;;;;;6220903;23;20380;-86
2021/05/12 08:00:41;;;;;;;14.80;5.63;;;17.20;99.90;;;;;;6188850;23;20264;-86
2021/05/12 08:03:07;;;;;;;8.33;4.90;;;17.20;99.90;;;;;;6189979;23;20131;-85
2021/05/12 08:05:33;;;;;;;9.63;5.47;;;17.30;99.90;;;;;;6189070;23;20855;-85
2021/05/12 08:07:59;;;;;;;11.23;5.33;;;17.40;99.90;;;;;;6188300;23;20384;-84
2021/05/12 08:10:25;;;;;;;10.83;6.40;;;17.40;99.90;;;;;;6186906;23;20176;-84
2021/05/12 08:12:50;;;;;;;17.60;5.73;;;17.10;99.90;;;;;;6211123;23;20157;-84
2021/05/12 08:15:16;;;;;;;13.53;6.50;;;17.00;99.90;;;;;;6211635;23;20385;-83
2021/05/12 08:17:42;;;;;;;15.00;8.70;;;16.90;99.90;;;;;;6187718;23;20146;-85
2021/05/12 08:20:08;;;;;;;13.00;6.97;;;17.00;99.90;;;;;;6188122;23;20603;-85
2021/05/12 08:22:33;;;;;;;11.20;7.10;;;16.80;99.90;;;;;;6212534;23;20256;-83
2021/05/12 08:24:59;;;;;;;9.27;6.20;;;16.90;99.90;;;;;;6188210;23;20401;-84
2021/05/12 08:27:28;;;;;;;12.23;8.00;;;17.10;99.90;;;;;;6189671;23;20149;-84
2021/05/12 08:29:55;;;;;;;14.53;7.23;;;17.20;99.90;;;;;;6212678;23;20157;-86
2021/05/12 08:32:21;;;;;;;12.57;6.80;;;17.40;99.90;;;;;;6188004;23;20393;-85
2021/05/12 08:34:47;;;;;;;12.03;7.10;;;17.50;99.90;;;;;;6189543;23;20444;-84
2021/05/12 08:37:13;;;;;;;11.77;7.53;;;17.30;99.90;;;;;;6188062;23;20389;-86
2021/05/12 08:39:38;;;;;;;10.83;6.57;;;17.10;99.90;;;;;;6188291;23;20174;-83
2021/05/12 08:42:06;;;;;;;13.00;7.20;;;17.20;99.90;;;;;;6188301;23;20185;-83
2021/05/12 08:44:33;;;;;;;12.43;7.07;;;17.20;99.90;;;;;;6186006;23;20158;-84
2021/05/12 08:47:01;;;;;;;16.87;7.23;;;17.10;99.90;;;;;;6187972;23;20369;-83
2021/05/12 08:49:28;;;;;;;12.57;8.63;;;17.30;99.90;;;;;;6188152;23;20938;-83
2021/05/12 08:51:56;;;;;;;15.43;7.90;;;17.10;99.90;;;;;;6188322;23;20408;-83
2021/05/12 08:54:25;;;;;;;11.37;6.90;;;17.00;99.90;;;;;;6188357;23;20385;-84
2021/05/12 08:56:51;;;;;;;12.27;7.00;;;16.90;99.90;;;;;;6198303;23;20452;-86
2021/05/12 08:59:17;;;;;;;13.80;8.70;;;16.70;99.90;;;;;;6189456;23;20384;-86
2021/05/12 09:01:43;;;;;;;18.53;10.10;;;16.70;99.90;;;;;;6190084;23;20670;-83
2021/05/12 09:04:09;;;;;;;14.37;7.57;;;17.00;99.90;;;;;;6187470;23;20158;-85
2021/05/12 09:06:36;;;;;;;14.50;7.87;;;17.30;99.90;;;;;;6187368;23;20377;-85
2021/05/12 09:09:06;;;;;;;15.03;8.20;;;17.40;99.90;;;;;;6189703;23;20866;-85
2021/05/12 09:11:32;;;;;;;14.63;7.90;;;17.10;99.90;;;;;;6187565;23;20467;-85
2021/05/12 09:13:58;;;;;;;12.10;8.70;;;17.20;99.90;;;;;;6190026;23;20411;-84
2021/05/12 09:16:29;;;;;;;12.23;8.43;;;17.20;99.90;;;;;;6188572;23;20384;-83
2021/05/12 09:19:02;;;;;;;13.10;7.53;;;17.30;99.90;;;;;;6188983;23;20627;-85
2021/05/12 09:21:53;;;;;;;13.27;8.93;;;17.30;99.90;;;;;;6213417;23;20421;-86
2021/05/12 09:24:51;;;;;;;12.93;7.93;;;17.40;99.90;;;;;;6187900;23;20393;-86
2021/05/12 09:27:37;;;;;;;13.07;8.27;;;17.30;99.90;;;;;;6189712;23;20358;-85
2021/05/12 09:30:45;;;;;;;16.20;9.07;;;17.50;99.90;;;;;;6165917;23;20440;-86
2021/05/12 09:33:38;;;;;;;14.90;8.57;;;17.40;99.90;;;;;;6187875;23;20377;-84
2021/05/12 09:36:41;;;;;;;14.57;8.93;;;17.40;99.90;;;;;;6184600;23;20518;-84
2021/05/12 09:39:38;;;;;;;18.23;7.17;;;17.50;99.90;;;;;;6190626;23;20377;-88
2021/05/12 09:42:47;;;;;;;16.77;9.03;;;17.70;99.90;;;;;;6198339;23;20481;-84
2021/05/12 09:45:39;;;;;;;15.00;9.00;;;17.80;99.90;;;;;;6212631;23;20366;-84
2021/05/12 09:48:15;;;;;;;14.20;7.90;;;17.90;99.90;;;;;;6189614;23;20377;-85
2021/05/12 09:51:23;;;;;;;15.63;8.60;;;17.80;99.90;;;;;;6193143;23;20403;-83
2021/05/12 09:54:29;;;;;;;17.23;9.50;;;17.70;99.90;;;;;;6199673;23;20402;-87
2021/05/12 09:57:00;;;;;;;15.70;10.27;;;18.00;99.90;;;;;;6191620;23;20345;-85
2021/05/12 10:03:52;;;;;;;15.13;11.00;;;17.10;99.90;;;;;;6205322;23;20451;-87
2021/05/12 10:16:18;;;;;;;13.40;9.20;;;17.60;99.90;;;;;;6187534;23;20402;-83
2021/05/12 10:18:49;;;;;;;14.97;11.00;;;17.90;99.90;;;;;;6188486;23;20374;-85
2021/05/12 10:21:23;;;;;;;16.33;10.30;;;17.90;99.90;;;;;;6189996;23;20433;-85
2021/05/12 10:23:55;;;;;;;14.20;9.70;;;18.00;99.90;;;;;;6191162;23;20391;-85
2021/05/12 10:26:20;;;;;;;17.70;9.70;;;18.00;99.90;;;;;;6189961;23;20392;-84
2021/05/12 10:28:46;;;;;;;17.00;10.17;;;17.60;99.90;;;;;;6187393;23;20443;-85
2021/05/12 10:31:12;;;;;;;16.07;10.20;;;17.40;99.90;;;;;;6213096;23;20321;-82
2021/05/12 10:33:48;;;;;;;18.10;10.73;;;17.20;99.90;;;;;;6213069;23;20153;-85
2021/05/12 10:36:14;;;;;;;15.33;9.23;;;17.10;99.90;;;;;;6190962;23;20203;-84
2021/05/12 10:38:45;;;;;;;14.40;8.73;;;17.30;99.90;;;;;;6213700;23;20380;-85
2021/05/12 10:41:38;;;;;;;14.70;8.93;;;17.40;99.90;;;;;;6189013;23;20475;-83
2021/05/12 10:44:18;;;;;;;13.20;8.47;;;17.20;99.90;;;;;;6189230;23;20357;-84
2021/05/12 10:47:08;;;;;;;19.27;9.10;;;16.90;99.90;;;;;;6189647;23;20488;-83
2021/05/12 10:49:35;;;;;;;14.63;8.13;;;16.90;99.90;;;;;;6188420;23;20373;-85
2021/05/12 10:52:08;;;;;;;16.63;8.30;;;17.20;99.90;;;;;;6188785;23;20420;-83
2021/05/12 10:54:50;;;;;;;14.70;9.17;;;17.50;99.90;;;;;;6189681;23;20373;-84
2021/05/12 10:57:51;;;;;;;19.70;9.27;;;17.70;99.90;;;;;;6189610;23;20738;-84
2021/05/12 11:00:21;;;;;;;20.73;9.93;;;17.70;99.90;;;;;;6190314;23;20879;-84
2021/05/12 11:03:00;;;;;;;14.50;8.73;;;18.00;99.90;;;;;;6189255;23;20505;-85
2021/05/12 11:05:58;;;;;;;14.57;7.60;;;18.10;99.90;;;;;;6189317;23;20425;-85
2021/05/12 11:08:24;;;;;;;18.43;9.50;;;18.30;99.90;;;;;;6190672;23;20375;-86
2021/05/12 11:10:57;;;;;;;16.83;10.13;;;18.50;99.90;;;;;;6193489;23;20409;-84
2021/05/12 11:13:25;;;;;;;14.67;8.27;;;18.50;99.90;;;;;;6191424;23;20152;-86
2021/05/12 11:15:56;;;;;;;12.43;9.10;;;18.40;99.90;;;;;;6193477;23;20457;-85
2021/05/12 11:18:33;;;;;;;14.40;8.90;;;18.10;99.90;;;;;;6192633;23;20392;-83
2021/05/12 11:21:59;;;;;;;15.50;10.00;;;17.80;99.90;;;;;;6218059;23;21131;-84
2021/05/12 11:24:06;;;;;;;16.00;9.20;;;17.50;99.90;;;;;;6193202;23;20383;-87
2021/05/12 11:32:07;;;;;;;16.70;9.50;;;17.40;99.90;;;;;;6198592;23;20397;-85
2021/05/12 11:34:33;;;;;;;17.33;9.67;;;17.40;99.90;;;;;;6195446;23;20407;-85
2021/05/12 11:37:11;;;;;;;17.77;8.43;;;17.60;99.90;;;;;;6196417;23;20386;-85
2021/05/12 11:39:38;;;;;;;19.43;9.90;;;17.80;99.90;;;;;;6200664;23;20410;-86
2021/05/12 11:42:25;;;;;;;20.13;9.03;;;17.20;99.90;;;;;;6218809;23;20436;-84
2021/05/12 11:45:03;;;;;;;16.50;9.67;;;17.10;99.90;;;;;;6207583;23;20457;-84
2021/05/12 11:47:31;;;;;;;16.03;8.70;;;16.90;99.90;;;;;;6199201;23;20465;-84
2021/05/12 11:49:57;;;;;;;13.43;8.67;;;17.10;99.90;;;;;;6193499;23;20390;-85
2021/05/12 11:52:46;;;;;;;16.30;9.90;;;17.10;99.90;;;;;;6193351;23;20389;-84
2021/05/12 11:55:12;;;;;;;13.73;8.70;;;17.30;99.90;;;;;;6193326;23;20135;-86
2021/05/12 11:57:44;;;;;;;19.07;10.27;;;17.10;99.90;;;;;;6194784;23;20401;-84
2021/05/12 12:00:15;;;;;;;19.03;10.60;;;17.20;99.90;;;;;;6194165;23;20357;-84
2021/05/12 12:02:52;;;;;;;21.83;9.27;;;17.20;99.90;;;;;;6216783;23;20416;-85
2021/05/12 12:05:18;;;;;;;16.10;9.60;;;17.10;99.90;;;;;;6191187;23;20354;-84
2021/05/12 12:07:44;;;;;;;20.67;10.27;;;17.20;99.90;;;;;;6191539;23;20877;-84
2021/05/12 12:10:10;;;;;;;16.43;9.67;;;17.40;99.90;;;;;;6191973;23;20154;-86
2021/05/12 12:12:36;;;;;;;19.63;9.20;;;16.90;99.90;;;;;;6190854;23;20162;-86
2021/05/12 12:15:11;;;;;;;15.70;9.13;;;16.50;99.90;;;;;;6200081;23;20384;-86
2021/05/12 12:17:37;;;;;;;16.50;9.80;;;16.60;99.90;;;;;;6194246;23;20855;-86
2021/05/12 12:20:08;;;;;;;14.30;9.50;;;16.90;99.90;;;;;;6189430;23;20380;-85
2021/05/12 12:22:53;;;;;;;16.87;9.00;;;17.00;99.90;;;;;;6213655;23;20393;-85
2021/05/12 12:25:19;;;;;;;15.33;9.30;;;17.40;99.90;;;;;;6189382;23;20434;-86
2021/05/12 12:27:45;;;;;;;11.23;8.50;;;17.40;99.90;;;;;;6191464;23;20372;-86
2021/05/12 12:30:17;;;;;;;17.80;9.57;;;17.20;99.90;;;;;;6191059;23;20366;-85
2021/05/12 12:32:43;;;;;;;15.07;9.13;;;17.10;99.90;;;;;;6189099;23;20867;-86
2021/05/12 12:35:09;;;;;;;19.37;10.07;;;16.70;99.90;;;;;;6191593;23;20405;-86
2021/05/12 12:37:37;;;;;;;17.03;10.03;;;16.70;99.90;;;;;;6189697;23;20157;-86
2021/05/12 12:40:13;;;;;;;13.70;8.70;;;16.80;99.90;;;;;;6213506;23;20385;-86
2021/05/12 12:42:49;;;;;;;19.33;10.40;;;17.10;99.90;;;;;;6189412;23;20451;-86
2021/05/12 12:45:31;;;;;;;13.60;9.30;;;16.90;99.90;;;;;;6189967;23;20369;-85
2021/05/12 12:48:07;;;;;;;14.20;10.63;;;16.80;99.90;;;;;;6190036;23;20758;-86
2021/05/12 12:50:35;;;;;;;12.53;8.43;;;16.90;99.90;;;;;;6188756;23;20424;-83
2021/05/12 12:53:05;;;;;;;18.00;9.10;;;16.90;99.90;;;;;;6190695;23;20485;-87
2021/05/12 12:55:32;;;;;;;16.03;9.60;;;17.00;99.90;;;;;;6189133;23;20420;-86
2021/05/12 12:58:02;;;;;;;15.10;9.60;;;16.90;99.90;;;;;;6189454;23;20447;-82
2021/05/12 13:00:56;;;;;;;25.40;10.20;;;16.60;99.90;;;;;;6189875;23;20409;-84
2021/05/12 13:03:23;;;;;;;20.37;10.43;;;16.60;99.90;;;;;;6210595;23;20385;-86
2021/05/12 13:05:59;;;;;;;15.87;9.20;;;16.50;99.90;;;;;;6188832;23;21007;-85
2021/05/12 13:08:29;;;;;;;14.30;8.90;;;16.40;99.90;;;;;;6189887;23;20468;-85
2021/05/12 13:11:16;;;;;;;15.30;9.13;;;16.50;99.90;;;;;;6190230;23;20389;-84
2021/05/12 13:13:47;;;;;;;20.40;10.57;;;16.50;99.90;;;;;;6187808;23;20384;-88
2021/05/12 13:16:23;;;;;;;16.90;10.37;;;16.40;99.90;;;;;;6198288;23;20400;-86
2021/05/12 13:19:16;;;;;;;21.90;11.60;;;16.20;99.90;;;;;;6217047;23;20357;-88
2021/05/12 13:21:54;;;;;;;17.77;10.17;;;16.20;99.90;;;;;;6213640;23;20486;-86
2021/05/12 13:24:25;;;;;;;26.73;14.37;;;16.30;99.90;;;;;;6219210;23;20880;-85
2021/05/12 13:26:57;;;;;;;16.37;10.07;;;16.50;99.90;;;;;;6195032;23;20885;-86
2021/05/12 13:32:36;;;;;;;14.80;9.43;;;16.70;99.90;;;;;;6175603;23;20405;-85
2021/05/12 13:35:02;;;;;;;14.57;9.43;;;16.90;99.90;;;;;;6203344;23;20353;-85
2021/05/12 13:37:33;;;;;;;17.30;9.70;;;16.60;99.90;;;;;;6201779;23;20377;-86
2021/05/12 13:39:59;;;;;;;13.90;7.57;;;16.60;99.90;;;;;;6201639;23;20138;-85
2021/05/12 13:42:25;;;;;;;14.90;8.63;;;16.60;99.90;;;;;;6225917;23;20512;-86
2021/05/12 13:44:59;;;;;;;11.43;8.40;;;16.60;99.90;;;;;;6199505;23;20168;-85
2021/05/12 13:47:26;;;;;;;11.30;7.63;;;16.40;99.90;;;;;;6200341;23;20148;-86
2021/05/12 13:49:52;;;;;;;12.10;7.77;;;16.60;99.90;;;;;;6197755;23;20369;-86
2021/05/12 13:52:37;;;;;;;12.60;8.20;;;16.50;99.90;;;;;;6194563;23;20503;-86
2021/05/12 13:55:12;;;;;;;11.00;7.50;;;16.50;99.90;;;;;;6195282;23;20156;-87
2021/05/12 14:03:17;;;;;;;9.03;6.37;;;16.20;99.90;;;;;;6137357;23;20784;-85
2021/05/12 14:05:48;;;;;;;9.07;6.93;;;16.20;99.90;;;;;;6177014;23;20383;-86
2021/05/12 14:08:14;;;;;;;7.77;5.63;;;16.30;99.90;;;;;;6194303;23;20150;-86